sensor_id;sensor_type;location;lat;lon;timestamp;P1;durP1;ratioP1;P2;durP2;ratioP2
12762;SDS011;6445;52.490;13.378;2023-04-24T00:02:16;7.50;;;5.30;;
12762;SDS011;6445;52.490;13.378;2023-04-24T00:04:41;6.57;;;5.28;;
12762;SDS011;6445;52.490;13.378;2023-04-24T00:07:09;5.80;;;5.10;;
12762;SDS011;6445;52.490;13.378;2023-04-24T00:09:34;7.20;;;5.78;;
12762;SDS011;6445;52.490;13.378;2023-04-24T00:12:00;7.18;;;5.63;;
12762;SDS011;6445;52.490;13.378;2023-04-24T00:14:27;7.90;;;6.70;;
12762;SDS011;6445;52.490;13.378;2023-04-24T00:16:52;7.82;;;5.30;;
12762;SDS011;6445;52.490;13.378;2023-04-24T00:19:18;6.55;;;5.85;;
12762;SDS011;6445;52.490;13.378;2023-04-24T00:21:46;8.13;;;5.93;;
12762;SDS011;6445;52.490;13.378;2023-04-24T00:24:11;7.70;;;5.85;;
12762;SDS011;6445;52.490;13.378;2023-04-24T00:26:36;6.45;;;5.68;;
12762;SDS011;6445;52.490;13.378;2023-04-24T00:29:01;9.30;;;6.07;;
12762;SDS011;6445;52.490;13.378;2023-04-24T00:31:27;7.50;;;5.60;;
12762;SDS011;6445;52.490;13.378;2023-04-24T00:33:52;7.47;;;6.47;;
12762;SDS011;6445;52.490;13.378;2023-04-24T00:36:17;6.57;;;5.88;;
12762;SDS011;6445;52.490;13.378;2023-04-24T00:38:45;6.70;;;5.70;;
12762;SDS011;6445;52.490;13.378;2023-04-24T00:41:10;9.25;;;5.60;;
12762;SDS011;6445;52.490;13.378;2023-04-24T00:43:36;8.27;;;6.18;;
12762;SDS011;6445;52.490;13.378;2023-04-24T00:46:01;6.05;;;5.45;;
12762;SDS011;6445;52.490;13.378;2023-04-24T00:48:26;6.20;;;5.38;;
12762;SDS011;6445;52.490;13.378;2023-04-24T00:50:52;7.20;;;5.72;;
12762;SDS011;6445;52.490;13.378;2023-04-24T00:53:18;6.05;;;5.45;;
12762;SDS011;6445;52.490;13.378;2023-04-24T00:55:43;9.80;;;5.72;;
12762;SDS011;6445;52.490;13.378;2023-04-24T00:58:09;6.95;;;6.05;;
12762;SDS011;6445;52.490;13.378;2023-04-24T01:00:34;7.40;;;5.93;;
12762;SDS011;6445;52.490;13.378;2023-04-24T01:03:00;8.23;;;6.25;;
12762;SDS011;6445;52.490;13.378;2023-04-24T01:05:29;7.40;;;6.10;;
12762;SDS011;6445;52.490;13.378;2023-04-24T01:07:54;8.10;;;6.00;;
12762;SDS011;6445;52.490;13.378;2023-04-24T01:10:20;6.22;;;5.38;;
12762;SDS011;6445;52.490;13.378;2023-04-24T01:12:45;7.05;;;6.03;;
12762;SDS011;6445;52.490;13.378;2023-04-24T01:15:11;8.23;;;5.75;;
12762;SDS011;6445;52.490;13.378;2023-04-24T01:17:36;6.85;;;6.10;;
12762;SDS011;6445;52.490;13.378;2023-04-24T01:20:03;7.53;;;5.90;;
12762;SDS011;6445;52.490;13.378;2023-04-24T01:22:30;7.45;;;5.82;;
12762;SDS011;6445;52.490;13.378;2023-04-24T01:24:55;6.88;;;6.15;;
12762;SDS011;6445;52.490;13.378;2023-04-24T01:27:21;6.32;;;5.72;;
12762;SDS011;6445;52.490;13.378;2023-04-24T01:29:46;7.63;;;5.85;;
12762;SDS011;6445;52.490;13.378;2023-04-24T01:32:14;6.82;;;5.70;;
12762;SDS011;6445;52.490;13.378;2023-04-24T01:34:39;6.72;;;5.95;;
12762;SDS011;6445;52.490;13.378;2023-04-24T01:37:05;6.43;;;5.63;;
12762;SDS011;6445;52.490;13.378;2023-04-24T01:39:30;6.78;;;6.03;;
12762;SDS011;6445;52.490;13.378;2023-04-24T01:41:58;8.02;;;5.70;;
12762;SDS011;6445;52.490;13.378;2023-04-24T01:44:24;6.45;;;5.85;;
12762;SDS011;6445;52.490;13.378;2023-04-24T01:46:50;7.22;;;6.20;;
12762;SDS011;6445;52.490;13.378;2023-04-24T01:49:16;6.57;;;5.85;;
12762;SDS011;6445;52.490;13.378;2023-04-24T01:51:41;7.07;;;6.28;;
12762;SDS011;6445;52.490;13.378;2023-04-24T01:54:07;7.28;;;6.50;;
12762;SDS011;6445;52.490;13.378;2023-04-24T01:56:33;6.88;;;6.18;;
12762;SDS011;6445;52.490;13.378;2023-04-24T01:59:00;7.20;;;6.28;;
12762;SDS011;6445;52.490;13.378;2023-04-24T02:01:31;7.88;;;6.05;;
12762;SDS011;6445;52.490;13.378;2023-04-24T02:03:59;6.93;;;6.05;;
12762;SDS011;6445;52.490;13.378;2023-04-24T02:06:24;6.50;;;5.88;;
12762;SDS011;6445;52.490;13.378;2023-04-24T02:08:49;6.80;;;6.10;;
12762;SDS011;6445;52.490;13.378;2023-04-24T02:11:15;7.32;;;6.18;;
12762;SDS011;6445;52.490;13.378;2023-04-24T02:13:40;7.22;;;6.53;;
12762;SDS011;6445;52.490;13.378;2023-04-24T02:16:05;7.30;;;6.47;;
12762;SDS011;6445;52.490;13.378;2023-04-24T02:18:30;7.22;;;6.53;;
12762;SDS011;6445;52.490;13.378;2023-04-24T02:20:55;7.80;;;6.55;;
12762;SDS011;6445;52.490;13.378;2023-04-24T02:23:21;7.00;;;6.30;;
12762;SDS011;6445;52.490;13.378;2023-04-24T02:25:46;7.65;;;6.65;;
12762;SDS011;6445;52.490;13.378;2023-04-24T02:28:12;8.95;;;6.80;;
12762;SDS011;6445;52.490;13.378;2023-04-24T02:30:37;8.07;;;7.25;;
12762;SDS011;6445;52.490;13.378;2023-04-24T02:33:02;9.27;;;6.57;;
12762;SDS011;6445;52.490;13.378;2023-04-24T02:35:28;8.02;;;6.55;;
12762;SDS011;6445;52.490;13.378;2023-04-24T02:37:53;8.02;;;7.20;;
12762;SDS011;6445;52.490;13.378;2023-04-24T02:40:19;7.68;;;6.88;;
12762;SDS011;6445;52.490;13.378;2023-04-24T02:42:44;7.28;;;6.47;;
12762;SDS011;6445;52.490;13.378;2023-04-24T02:45:09;7.88;;;6.68;;
12762;SDS011;6445;52.490;13.378;2023-04-24T02:47:35;7.43;;;6.57;;
12762;SDS011;6445;52.490;13.378;2023-04-24T02:50:01;8.00;;;6.57;;
12762;SDS011;6445;52.490;13.378;2023-04-24T02:52:27;6.82;;;6.13;;
12762;SDS011;6445;52.490;13.378;2023-04-24T02:54:52;7.50;;;6.63;;
12762;SDS011;6445;52.490;13.378;2023-04-24T02:57:18;8.48;;;6.75;;
12762;SDS011;6445;52.490;13.378;2023-04-24T02:59:44;7.65;;;6.63;;
12762;SDS011;6445;52.490;13.378;2023-04-24T03:02:09;7.60;;;6.80;;
12762;SDS011;6445;52.490;13.378;2023-04-24T03:04:34;8.50;;;7.22;;
12762;SDS011;6445;52.490;13.378;2023-04-24T03:06:59;7.30;;;6.57;;
12762;SDS011;6445;52.490;13.378;2023-04-24T03:09:26;7.72;;;6.90;;
12762;SDS011;6445;52.490;13.378;2023-04-24T03:11:51;7.43;;;6.72;;
12762;SDS011;6445;52.490;13.378;2023-04-24T03:14:16;8.68;;;6.95;;
12762;SDS011;6445;52.490;13.378;2023-04-24T03:16:41;9.25;;;7.25;;
12762;SDS011;6445;52.490;13.378;2023-04-24T03:19:07;9.45;;;6.82;;
12762;SDS011;6445;52.490;13.378;2023-04-24T03:21:32;9.05;;;6.90;;
12762;SDS011;6445;52.490;13.378;2023-04-24T03:23:57;7.95;;;6.80;;
12762;SDS011;6445;52.490;13.378;2023-04-24T03:26:23;8.10;;;6.35;;
12762;SDS011;6445;52.490;13.378;2023-04-24T03:28:48;8.20;;;6.70;;
12762;SDS011;6445;52.490;13.378;2023-04-24T03:31:13;7.70;;;6.90;;
12762;SDS011;6445;52.490;13.378;2023-04-24T03:33:40;7.95;;;6.75;;
12762;SDS011;6445;52.490;13.378;2023-04-24T03:36:05;9.55;;;6.90;;
12762;SDS011;6445;52.490;13.378;2023-04-24T03:38:30;9.32;;;7.32;;
12762;SDS011;6445;52.490;13.378;2023-04-24T03:40:56;10.55;;;6.72;;
12762;SDS011;6445;52.490;13.378;2023-04-24T03:43:21;8.48;;;7.03;;
12762;SDS011;6445;52.490;13.378;2023-04-24T03:45:46;8.75;;;7.57;;
12762;SDS011;6445;52.490;13.378;2023-04-24T03:48:11;8.35;;;6.80;;
12762;SDS011;6445;52.490;13.378;2023-04-24T03:50:37;8.25;;;7.10;;
12762;SDS011;6445;52.490;13.378;2023-04-24T03:53:02;7.45;;;6.72;;
12762;SDS011;6445;52.490;13.378;2023-04-24T03:55:27;8.00;;;6.25;;
12762;SDS011;6445;52.490;13.378;2023-04-24T03:57:52;7.72;;;6.65;;
12762;SDS011;6445;52.490;13.378;2023-04-24T04:00:18;7.70;;;6.90;;
12762;SDS011;6445;52.490;13.378;2023-04-24T04:02:43;8.50;;;6.70;;
12762;SDS011;6445;52.490;13.378;2023-04-24T04:05:08;7.15;;;6.45;;
12762;SDS011;6445;52.490;13.378;2023-04-24T04:07:34;7.13;;;6.28;;
12762;SDS011;6445;52.490;13.378;2023-04-24T04:09:59;7.88;;;6.93;;
12762;SDS011;6445;52.490;13.378;2023-04-24T04:12:24;7.30;;;6.15;;
12762;SDS011;6445;52.490;13.378;2023-04-24T04:14:50;7.40;;;6.28;;
12762;SDS011;6445;52.490;13.378;2023-04-24T04:17:15;7.15;;;5.93;;
12762;SDS011;6445;52.490;13.378;2023-04-24T04:19:40;8.93;;;6.53;;
12762;SDS011;6445;52.490;13.378;2023-04-24T04:22:05;6.40;;;5.80;;
12762;SDS011;6445;52.490;13.378;2023-04-24T04:24:32;7.82;;;5.97;;
12762;SDS011;6445;52.490;13.378;2023-04-24T04:26:58;6.47;;;5.88;;
12762;SDS011;6445;52.490;13.378;2023-04-24T04:29:24;6.95;;;6.25;;
12762;SDS011;6445;52.490;13.378;2023-04-24T04:31:49;6.50;;;5.90;;
12762;SDS011;6445;52.490;13.378;2023-04-24T04:34:15;9.05;;;6.28;;
12762;SDS011;6445;52.490;13.378;2023-04-24T04:36:40;9.30;;;6.57;;
12762;SDS011;6445;52.490;13.378;2023-04-24T04:39:06;7.32;;;6.07;;
12762;SDS011;6445;52.490;13.378;2023-04-24T04:41:31;7.78;;;6.35;;
12762;SDS011;6445;52.490;13.378;2023-04-24T04:43:57;6.28;;;5.68;;
12762;SDS011;6445;52.490;13.378;2023-04-24T04:46:23;5.97;;;5.35;;
12762;SDS011;6445;52.490;13.378;2023-04-24T04:48:51;8.07;;;5.75;;
12762;SDS011;6445;52.490;13.378;2023-04-24T04:51:16;5.80;;;5.20;;
12762;SDS011;6445;52.490;13.378;2023-04-24T04:53:42;6.78;;;5.60;;
12762;SDS011;6445;52.490;13.378;2023-04-24T04:56:07;5.57;;;5.07;;
12762;SDS011;6445;52.490;13.378;2023-04-24T04:58:32;6.20;;;4.70;;
12762;SDS011;6445;52.490;13.378;2023-04-24T05:00:58;6.18;;;5.30;;
12762;SDS011;6445;52.490;13.378;2023-04-24T05:03:24;7.15;;;5.30;;
12762;SDS011;6445;52.490;13.378;2023-04-24T05:05:49;6.07;;;5.20;;
12762;SDS011;6445;52.490;13.378;2023-04-24T05:08:14;7.53;;;5.22;;
12762;SDS011;6445;52.490;13.378;2023-04-24T05:10:39;7.70;;;4.97;;
12762;SDS011;6445;52.490;13.378;2023-04-24T05:13:05;5.25;;;4.70;;
12762;SDS011;6445;52.490;13.378;2023-04-24T05:15:30;5.65;;;4.88;;
12762;SDS011;6445;52.490;13.378;2023-04-24T05:17:55;5.00;;;4.50;;
12762;SDS011;6445;52.490;13.378;2023-04-24T05:20:20;4.95;;;4.45;;
12762;SDS011;6445;52.490;13.378;2023-04-24T05:22:46;4.82;;;4.13;;
12762;SDS011;6445;52.490;13.378;2023-04-24T05:25:11;4.80;;;4.30;;
12762;SDS011;6445;52.490;13.378;2023-04-24T05:27:37;5.93;;;4.35;;
12762;SDS011;6445;52.490;13.378;2023-04-24T05:30:03;4.22;;;3.83;;
12762;SDS011;6445;52.490;13.378;2023-04-24T05:32:29;4.03;;;3.53;;
12762;SDS011;6445;52.490;13.378;2023-04-24T05:34:54;13.80;;;11.63;;
12762;SDS011;6445;52.490;13.378;2023-04-24T05:37:20;4.60;;;3.15;;
12762;SDS011;6445;52.490;13.378;2023-04-24T05:39:45;3.83;;;2.95;;
12762;SDS011;6445;52.490;13.378;2023-04-24T05:42:10;4.38;;;2.90;;
12762;SDS011;6445;52.490;13.378;2023-04-24T05:44:36;3.88;;;2.50;;
12762;SDS011;6445;52.490;13.378;2023-04-24T05:47:01;3.40;;;2.28;;
12762;SDS011;6445;52.490;13.378;2023-04-24T05:49:26;3.60;;;2.72;;
12762;SDS011;6445;52.490;13.378;2023-04-24T05:51:52;2.55;;;2.33;;
12762;SDS011;6445;52.490;13.378;2023-04-24T05:54:17;2.97;;;2.67;;
12762;SDS011;6445;52.490;13.378;2023-04-24T05:56:42;2.72;;;2.30;;
12762;SDS011;6445;52.490;13.378;2023-04-24T05:59:08;2.50;;;2.30;;
12762;SDS011;6445;52.490;13.378;2023-04-24T06:01:33;2.88;;;2.25;;
12762;SDS011;6445;52.490;13.378;2023-04-24T06:03:59;8.90;;;6.25;;
12762;SDS011;6445;52.490;13.378;2023-04-24T06:06:24;6.65;;;3.05;;
12762;SDS011;6445;52.490;13.378;2023-04-24T06:08:50;2.25;;;2.05;;
12762;SDS011;6445;52.490;13.378;2023-04-24T06:11:15;3.60;;;2.20;;
12762;SDS011;6445;52.490;13.378;2023-04-24T06:13:41;5.00;;;2.28;;
12762;SDS011;6445;52.490;13.378;2023-04-24T06:16:06;2.90;;;2.20;;
12762;SDS011;6445;52.490;13.378;2023-04-24T06:18:31;4.10;;;1.92;;
12762;SDS011;6445;52.490;13.378;2023-04-24T06:20:57;3.00;;;2.00;;
12762;SDS011;6445;52.490;13.378;2023-04-24T06:23:22;2.30;;;2.05;;
12762;SDS011;6445;52.490;13.378;2023-04-24T06:25:47;3.70;;;2.00;;
12762;SDS011;6445;52.490;13.378;2023-04-24T06:28:12;3.83;;;2.28;;
12762;SDS011;6445;52.490;13.378;2023-04-24T06:30:38;3.08;;;2.08;;
12762;SDS011;6445;52.490;13.378;2023-04-24T06:33:03;2.47;;;2.22;;
12762;SDS011;6445;52.490;13.378;2023-04-24T06:35:28;5.60;;;2.08;;
12762;SDS011;6445;52.490;13.378;2023-04-24T06:37:53;2.40;;;1.75;;
12762;SDS011;6445;52.490;13.378;2023-04-24T06:40:20;2.33;;;2.05;;
12762;SDS011;6445;52.490;13.378;2023-04-24T06:42:46;3.83;;;2.08;;
12762;SDS011;6445;52.490;13.378;2023-04-24T06:45:11;2.50;;;1.65;;
12762;SDS011;6445;52.490;13.378;2023-04-24T06:47:36;2.33;;;1.85;;
12762;SDS011;6445;52.490;13.378;2023-04-24T06:50:02;3.00;;;1.50;;
12762;SDS011;6445;52.490;13.378;2023-04-24T06:52:28;2.15;;;1.40;;
12762;SDS011;6445;52.490;13.378;2023-04-24T06:54:59;1.83;;;1.55;;
12762;SDS011;6445;52.490;13.378;2023-04-24T06:57:25;2.10;;;1.50;;
12762;SDS011;6445;52.490;13.378;2023-04-24T06:59:50;2.33;;;1.40;;
12762;SDS011;6445;52.490;13.378;2023-04-24T07:02:15;3.05;;;2.17;;
12762;SDS011;6445;52.490;13.378;2023-04-24T07:04:40;2.65;;;1.60;;
12762;SDS011;6445;52.490;13.378;2023-04-24T07:07:06;5.53;;;1.20;;
12762;SDS011;6445;52.490;13.378;2023-04-24T07:09:32;2.40;;;1.25;;
12762;SDS011;6445;52.490;13.378;2023-04-24T07:12:00;2.72;;;1.20;;
12762;SDS011;6445;52.490;13.378;2023-04-24T07:14:25;1.10;;;1.00;;
12762;SDS011;6445;52.490;13.378;2023-04-24T07:16:50;2.90;;;1.20;;
12762;SDS011;6445;52.490;13.378;2023-04-24T07:19:16;2.63;;;1.20;;
12762;SDS011;6445;52.490;13.378;2023-04-24T07:21:41;1.55;;;1.35;;
12762;SDS011;6445;52.490;13.378;2023-04-24T07:24:06;3.42;;;1.35;;
12762;SDS011;6445;52.490;13.378;2023-04-24T07:26:35;1.88;;;1.40;;
12762;SDS011;6445;52.490;13.378;2023-04-24T07:29:01;1.55;;;1.15;;
12762;SDS011;6445;52.490;13.378;2023-04-24T07:31:27;3.28;;;1.20;;
12762;SDS011;6445;52.490;13.378;2023-04-24T07:33:52;1.67;;;1.20;;
12762;SDS011;6445;52.490;13.378;2023-04-24T07:36:17;1.52;;;1.17;;
12762;SDS011;6445;52.490;13.378;2023-04-24T07:38:44;2.10;;;1.10;;
12762;SDS011;6445;52.490;13.378;2023-04-24T07:41:10;1.80;;;1.10;;
12762;SDS011;6445;52.490;13.378;2023-04-24T07:43:35;2.70;;;1.30;;
12762;SDS011;6445;52.490;13.378;2023-04-24T07:46:01;2.47;;;1.00;;
12762;SDS011;6445;52.490;13.378;2023-04-24T07:48:26;1.13;;;0.80;;
12762;SDS011;6445;52.490;13.378;2023-04-24T07:50:52;2.25;;;0.80;;
12762;SDS011;6445;52.490;13.378;2023-04-24T07:53:18;2.15;;;1.00;;
12762;SDS011;6445;52.490;13.378;2023-04-24T07:55:43;1.15;;;0.90;;
12762;SDS011;6445;52.490;13.378;2023-04-24T07:58:08;2.35;;;1.02;;
12762;SDS011;6445;52.490;13.378;2023-04-24T08:00:34;1.27;;;1.00;;
12762;SDS011;6445;52.490;13.378;2023-04-24T08:02:59;0.80;;;0.70;;
12762;SDS011;6445;52.490;13.378;2023-04-24T08:05:25;1.20;;;1.00;;
12762;SDS011;6445;52.490;13.378;2023-04-24T08:07:52;1.15;;;0.80;;
12762;SDS011;6445;52.490;13.378;2023-04-24T08:10:17;1.55;;;0.65;;
12762;SDS011;6445;52.490;13.378;2023-04-24T08:12:43;2.15;;;0.98;;
12762;SDS011;6445;52.490;13.378;2023-04-24T08:15:08;2.05;;;0.80;;
12762;SDS011;6445;52.490;13.378;2023-04-24T08:17:34;0.90;;;0.75;;
12762;SDS011;6445;52.490;13.378;2023-04-24T08:20:00;0.50;;;0.50;;
12762;SDS011;6445;52.490;13.378;2023-04-24T08:22:29;1.42;;;0.85;;
12762;SDS011;6445;52.490;13.378;2023-04-24T08:24:54;1.08;;;0.77;;
12762;SDS011;6445;52.490;13.378;2023-04-24T08:27:21;1.83;;;1.30;;
12762;SDS011;6445;52.490;13.378;2023-04-24T08:29:47;1.30;;;0.90;;
12762;SDS011;6445;52.490;13.378;2023-04-24T08:32:12;1.08;;;0.90;;
12762;SDS011;6445;52.490;13.378;2023-04-24T08:34:37;1.30;;;0.90;;
12762;SDS011;6445;52.490;13.378;2023-04-24T08:37:02;1.70;;;0.70;;
12762;SDS011;6445;52.490;13.378;2023-04-24T08:39:28;2.15;;;0.90;;
12762;SDS011;6445;52.490;13.378;2023-04-24T08:41:54;1.33;;;0.75;;
12762;SDS011;6445;52.490;13.378;2023-04-24T08:44:20;2.33;;;0.88;;
12762;SDS011;6445;52.490;13.378;2023-04-24T08:46:47;3.72;;;1.63;;
12762;SDS011;6445;52.490;13.378;2023-04-24T08:49:13;1.13;;;0.90;;
12762;SDS011;6445;52.490;13.378;2023-04-24T08:51:41;0.60;;;0.60;;
12762;SDS011;6445;52.490;13.378;2023-04-24T08:54:07;2.35;;;0.90;;
12762;SDS011;6445;52.490;13.378;2023-04-24T08:56:33;4.03;;;0.70;;
12762;SDS011;6445;52.490;13.378;2023-04-24T08:59:02;0.80;;;0.70;;
12762;SDS011;6445;52.490;13.378;2023-04-24T09:01:28;0.90;;;0.90;;
12762;SDS011;6445;52.490;13.378;2023-04-24T09:03:56;1.42;;;1.00;;
12762;SDS011;6445;52.490;13.378;2023-04-24T09:06:22;1.42;;;0.90;;
12762;SDS011;6445;52.490;13.378;2023-04-24T09:08:48;1.02;;;0.80;;
12762;SDS011;6445;52.490;13.378;2023-04-24T09:11:17;2.28;;;0.90;;
12762;SDS011;6445;52.490;13.378;2023-04-24T09:13:43;1.77;;;1.10;;
12762;SDS011;6445;52.490;13.378;2023-04-24T09:16:08;3.15;;;1.00;;
12762;SDS011;6445;52.490;13.378;2023-04-24T09:18:33;1.05;;;0.90;;
12762;SDS011;6445;52.490;13.378;2023-04-24T09:21:04;1.45;;;0.80;;
12762;SDS011;6445;52.490;13.378;2023-04-24T09:23:33;8.13;;;3.85;;
12762;SDS011;6445;52.490;13.378;2023-04-24T09:25:59;1.13;;;1.02;;
12762;SDS011;6445;52.490;13.378;2023-04-24T09:28:30;2.22;;;1.20;;
12762;SDS011;6445;52.490;13.378;2023-04-24T09:31:03;4.22;;;0.90;;
12762;SDS011;6445;52.490;13.378;2023-04-24T09:33:39;1.08;;;0.90;;
12762;SDS011;6445;52.490;13.378;2023-04-24T09:36:05;1.77;;;1.10;;
12762;SDS011;6445;52.490;13.378;2023-04-24T09:38:31;2.45;;;1.30;;
12762;SDS011;6445;52.490;13.378;2023-04-24T09:41:05;1.20;;;0.90;;
12762;SDS011;6445;52.490;13.378;2023-04-24T09:43:32;1.77;;;1.00;;
12762;SDS011;6445;52.490;13.378;2023-04-24T09:45:58;1.33;;;1.10;;
12762;SDS011;6445;52.490;13.378;2023-04-24T09:48:32;4.97;;;1.10;;
12762;SDS011;6445;52.490;13.378;2023-04-24T09:51:00;3.20;;;1.20;;
12762;SDS011;6445;52.490;13.378;2023-04-24T09:53:26;1.20;;;0.90;;
12762;SDS011;6445;52.490;13.378;2023-04-24T09:55:52;1.52;;;1.00;;
12762;SDS011;6445;52.490;13.378;2023-04-24T09:58:18;3.42;;;1.00;;
12762;SDS011;6445;52.490;13.378;2023-04-24T10:00:49;1.92;;;1.00;;
12762;SDS011;6445;52.490;13.378;2023-04-24T10:03:15;2.03;;;1.02;;
12762;SDS011;6445;52.490;13.378;2023-04-24T10:05:42;1.05;;;0.95;;
12762;SDS011;6445;52.490;13.378;2023-04-24T10:08:11;10.20;;;6.82;;
12762;SDS011;6445;52.490;13.378;2023-04-24T10:10:44;7.47;;;5.63;;
12762;SDS011;6445;52.490;13.378;2023-04-24T10:13:10;1.77;;;1.00;;
12762;SDS011;6445;52.490;13.378;2023-04-24T10:15:37;2.65;;;0.88;;
12762;SDS011;6445;52.490;13.378;2023-04-24T10:18:04;1.42;;;0.80;;
12762;SDS011;6445;52.490;13.378;2023-04-24T10:20:31;1.13;;;1.02;;
12762;SDS011;6445;52.490;13.378;2023-04-24T10:22:57;1.33;;;1.02;;
12762;SDS011;6445;52.490;13.378;2023-04-24T10:25:24;1.48;;;0.90;;
12762;SDS011;6445;52.490;13.378;2023-04-24T10:27:54;3.80;;;1.00;;
12762;SDS011;6445;52.490;13.378;2023-04-24T10:30:24;2.05;;;1.30;;
12762;SDS011;6445;52.490;13.378;2023-04-24T10:32:50;1.88;;;1.13;;
12762;SDS011;6445;52.490;13.378;2023-04-24T10:35:16;1.58;;;1.00;;
12762;SDS011;6445;52.490;13.378;2023-04-24T10:37:44;1.95;;;0.93;;
12762;SDS011;6445;52.490;13.378;2023-04-24T10:40:16;1.17;;;1.05;;
12762;SDS011;6445;52.490;13.378;2023-04-24T10:42:43;3.28;;;1.10;;
12762;SDS011;6445;52.490;13.378;2023-04-24T10:45:16;1.58;;;1.13;;
12762;SDS011;6445;52.490;13.378;2023-04-24T10:47:43;1.48;;;0.98;;
12762;SDS011;6445;52.490;13.378;2023-04-24T10:50:16;1.73;;;1.10;;
12762;SDS011;6445;52.490;13.378;2023-04-24T10:52:48;1.88;;;1.10;;
12762;SDS011;6445;52.490;13.378;2023-04-24T10:55:16;1.73;;;1.02;;
12762;SDS011;6445;52.490;13.378;2023-04-24T10:58:02;2.08;;;0.98;;
12762;SDS011;6445;52.490;13.378;2023-04-24T11:00:28;1.42;;;0.80;;
12762;SDS011;6445;52.490;13.378;2023-04-24T11:02:53;2.05;;;1.20;;
12762;SDS011;6445;52.490;13.378;2023-04-24T11:05:20;1.90;;;1.00;;
12762;SDS011;6445;52.490;13.378;2023-04-24T11:10:38;4.35;;;3.42;;
12762;SDS011;6445;52.490;13.378;2023-04-24T11:13:14;2.75;;;1.10;;
12762;SDS011;6445;52.490;13.378;2023-04-24T11:15:41;1.45;;;0.90;;
12762;SDS011;6445;52.490;13.378;2023-04-24T11:18:07;0.90;;;0.90;;
12762;SDS011;6445;52.490;13.378;2023-04-24T11:20:38;3.90;;;1.10;;
12762;SDS011;6445;52.490;13.378;2023-04-24T11:23:07;2.47;;;1.17;;
12762;SDS011;6445;52.490;13.378;2023-04-24T11:25:33;1.38;;;1.00;;
12762;SDS011;6445;52.490;13.378;2023-04-24T11:28:03;1.02;;;0.90;;
12762;SDS011;6445;52.490;13.378;2023-04-24T11:30:30;2.65;;;1.00;;
12762;SDS011;6445;52.490;13.378;2023-04-24T11:33:05;3.30;;;1.15;;
12762;SDS011;6445;52.490;13.378;2023-04-24T11:35:34;3.38;;;1.00;;
12762;SDS011;6445;52.490;13.378;2023-04-24T11:38:04;6.75;;;1.30;;
12762;SDS011;6445;52.490;13.378;2023-04-24T11:40:30;1.92;;;1.00;;
12762;SDS011;6445;52.490;13.378;2023-04-24T11:42:55;1.00;;;0.88;;
12762;SDS011;6445;52.490;13.378;2023-04-24T11:45:21;1.63;;;0.90;;
12762;SDS011;6445;52.490;13.378;2023-04-24T11:47:48;2.15;;;1.00;;
12762;SDS011;6445;52.490;13.378;2023-04-24T11:50:15;2.75;;;1.00;;
12762;SDS011;6445;52.490;13.378;2023-04-24T11:52:42;1.25;;;0.90;;
12762;SDS011;6445;52.490;13.378;2023-04-24T11:57:59;2.05;;;1.00;;
12762;SDS011;6445;52.490;13.378;2023-04-24T12:00:26;1.55;;;1.00;;
12762;SDS011;6445;52.490;13.378;2023-04-24T12:03:12;3.00;;;1.10;;
12762;SDS011;6445;52.490;13.378;2023-04-24T12:05:37;3.13;;;2.17;;
12762;SDS011;6445;52.490;13.378;2023-04-24T12:08:03;1.48;;;1.15;;
12762;SDS011;6445;52.490;13.378;2023-04-24T12:10:30;2.63;;;1.20;;
12762;SDS011;6445;52.490;13.378;2023-04-24T12:12:56;1.73;;;1.10;;
12762;SDS011;6445;52.490;13.378;2023-04-24T12:15:23;1.77;;;1.20;;
12762;SDS011;6445;52.490;13.378;2023-04-24T12:17:52;1.58;;;1.10;;
12762;SDS011;6445;52.490;13.378;2023-04-24T12:20:23;1.40;;;1.10;;
12762;SDS011;6445;52.490;13.378;2023-04-24T12:22:56;1.52;;;0.90;;
12762;SDS011;6445;52.490;13.378;2023-04-24T12:25:23;1.80;;;1.10;;
12762;SDS011;6445;52.490;13.378;2023-04-24T12:28:08;1.10;;;1.00;;
12762;SDS011;6445;52.490;13.378;2023-04-24T12:30:54;4.55;;;1.08;;
12762;SDS011;6445;52.490;13.378;2023-04-24T12:33:19;0.85;;;0.85;;
12762;SDS011;6445;52.490;13.378;2023-04-24T12:35:45;1.30;;;0.82;;
12762;SDS011;6445;52.490;13.378;2023-04-24T12:38:11;1.73;;;0.90;;
12762;SDS011;6445;52.490;13.378;2023-04-24T12:40:38;2.10;;;1.20;;
12762;SDS011;6445;52.490;13.378;2023-04-24T12:43:14;2.78;;;1.00;;
12762;SDS011;6445;52.490;13.378;2023-04-24T12:45:43;2.28;;;1.00;;
12762;SDS011;6445;52.490;13.378;2023-04-24T12:48:09;3.78;;;1.00;;
12762;SDS011;6445;52.490;13.378;2023-04-24T12:50:34;0.80;;;0.80;;
12762;SDS011;6445;52.490;13.378;2023-04-24T12:53:00;1.17;;;0.77;;
12762;SDS011;6445;52.490;13.378;2023-04-24T12:55:25;3.08;;;0.90;;
12762;SDS011;6445;52.490;13.378;2023-04-24T12:57:50;2.55;;;1.10;;
12762;SDS011;6445;52.490;13.378;2023-04-24T13:00:16;4.95;;;3.30;;
12762;SDS011;6445;52.490;13.378;2023-04-24T13:02:42;6.03;;;1.52;;
12762;SDS011;6445;52.490;13.378;2023-04-24T13:05:08;3.30;;;1.30;;
12762;SDS011;6445;52.490;13.378;2023-04-24T13:07:33;1.90;;;1.10;;
12762;SDS011;6445;52.490;13.378;2023-04-24T13:09:59;2.67;;;1.02;;
12762;SDS011;6445;52.490;13.378;2023-04-24T13:12:24;2.97;;;0.90;;
12762;SDS011;6445;52.490;13.378;2023-04-24T13:14:50;1.55;;;0.80;;
12762;SDS011;6445;52.490;13.378;2023-04-24T13:17:16;1.20;;;0.90;;
12762;SDS011;6445;52.490;13.378;2023-04-24T13:19:42;1.60;;;0.98;;
12762;SDS011;6445;52.490;13.378;2023-04-24T13:22:11;1.30;;;0.80;;
12762;SDS011;6445;52.490;13.378;2023-04-24T13:24:37;1.08;;;0.98;;
12762;SDS011;6445;52.490;13.378;2023-04-24T13:27:04;2.30;;;0.90;;
12762;SDS011;6445;52.490;13.378;2023-04-24T13:29:30;1.27;;;0.85;;
12762;SDS011;6445;52.490;13.378;2023-04-24T13:31:55;1.45;;;0.90;;
12762;SDS011;6445;52.490;13.378;2023-04-24T13:34:21;3.20;;;0.88;;
12762;SDS011;6445;52.490;13.378;2023-04-24T13:36:50;1.00;;;0.88;;
12762;SDS011;6445;52.490;13.378;2023-04-24T13:39:17;3.15;;;1.13;;
12762;SDS011;6445;52.490;13.378;2023-04-24T13:41:42;2.30;;;1.00;;
12762;SDS011;6445;52.490;13.378;2023-04-24T13:44:08;0.90;;;0.85;;
12762;SDS011;6445;52.490;13.378;2023-04-24T13:46:33;1.23;;;0.90;;
12762;SDS011;6445;52.490;13.378;2023-04-24T13:48:59;1.77;;;1.08;;
12762;SDS011;6445;52.490;13.378;2023-04-24T13:51:27;1.13;;;0.80;;
12762;SDS011;6445;52.490;13.378;2023-04-24T13:53:53;1.55;;;0.90;;
12762;SDS011;6445;52.490;13.378;2023-04-24T13:56:19;1.52;;;1.00;;
12762;SDS011;6445;52.490;13.378;2023-04-24T13:58:45;3.00;;;1.02;;
12762;SDS011;6445;52.490;13.378;2023-04-24T14:01:10;2.85;;;1.05;;
12762;SDS011;6445;52.490;13.378;2023-04-24T14:03:37;2.90;;;1.10;;
12762;SDS011;6445;52.490;13.378;2023-04-24T14:06:02;2.15;;;0.90;;
12762;SDS011;6445;52.490;13.378;2023-04-24T14:08:27;1.70;;;1.33;;
12762;SDS011;6445;52.490;13.378;2023-04-24T14:10:53;4.80;;;2.67;;
12762;SDS011;6445;52.490;13.378;2023-04-24T14:13:18;1.77;;;1.17;;
12762;SDS011;6445;52.490;13.378;2023-04-24T14:15:44;1.35;;;1.00;;
12762;SDS011;6445;52.490;13.378;2023-04-24T14:18:09;3.00;;;1.00;;
12762;SDS011;6445;52.490;13.378;2023-04-24T14:20:34;1.30;;;0.82;;
12762;SDS011;6445;52.490;13.378;2023-04-24T14:23:00;2.97;;;1.05;;
12762;SDS011;6445;52.490;13.378;2023-04-24T14:25:25;1.58;;;1.00;;
12762;SDS011;6445;52.490;13.378;2023-04-24T14:27:50;1.10;;;1.00;;
12762;SDS011;6445;52.490;13.378;2023-04-24T14:30:16;2.20;;;1.10;;
12762;SDS011;6445;52.490;13.378;2023-04-24T14:32:41;2.85;;;1.10;;
12762;SDS011;6445;52.490;13.378;2023-04-24T14:35:07;4.15;;;1.20;;
12762;SDS011;6445;52.490;13.378;2023-04-24T14:37:32;0.85;;;0.80;;
12762;SDS011;6445;52.490;13.378;2023-04-24T14:39:58;1.80;;;1.10;;
12762;SDS011;6445;52.490;13.378;2023-04-24T14:42:24;1.48;;;1.20;;
12762;SDS011;6445;52.490;13.378;2023-04-24T14:44:49;3.55;;;1.33;;
12762;SDS011;6445;52.490;13.378;2023-04-24T14:47:15;1.15;;;1.05;;
12762;SDS011;6445;52.490;13.378;2023-04-24T14:49:42;8.70;;;6.88;;